Time;durP1;ratioP1;P1;durP2;ratioP2;P2;SDS_P1;SDS_P2;PMS_P1;PMS_P2;Temp;Humidity;BMP_temperature;BMP_pressure;BME280_temperature;BME280_humidity;BME280_pressure;Samples;Min_cycle;Max_cycle;Signal;HPM_P1;HPM_P2
2023/08/16 00:02:22;;;;;;;5.07;2.03;;;22.40;99.90;;;;;;7287548;19;20224;-76
2023/08/16 00:04:48;;;;;;;6.57;2.10;;;22.30;99.90;;;;;;7302053;19;20192;-75
2023/08/16 00:07:14;;;;;;;6.33;2.10;;;22.20;99.90;;;;;;7279217;19;20189;-75
2023/08/16 00:09:40;;;;;;;4.43;1.93;;;22.20;99.90;;;;;;7280483;19;20212;-75
2023/08/16 00:12:07;;;;;;;6.93;2.10;;;22.30;99.90;;;;;;7279308;19;20193;-76
2023/08/16 00:14:32;;;;;;;7.73;2.37;;;22.20;99.90;;;;;;7277904;19;20319;-76
2023/08/16 00:16:58;;;;;;;9.20;2.73;;;22.20;99.90;;;;;;7278016;19;20185;-76
2023/08/16 00:19:25;;;;;;;10.37;2.50;;;22.30;99.90;;;;;;7277464;19;20192;-76
2023/08/16 00:21:51;;;;;;;10.23;2.67;;;22.20;99.90;;;;;;7300019;19;20189;-76
2023/08/16 00:24:16;;;;;;;7.00;2.50;;;22.20;99.90;;;;;;7278724;19;20193;-76
2023/08/16 00:26:43;;;;;;;7.53;2.60;;;22.30;99.90;;;;;;7277700;19;20207;-75
2023/08/16 00:29:09;;;;;;;7.13;2.53;;;22.20;99.90;;;;;;7277504;19;20189;-75
2023/08/16 00:31:35;;;;;;;13.27;2.60;;;22.10;99.90;;;;;;7278669;19;20688;-75
2023/08/16 00:34:00;;;;;;;11.33;2.60;;;22.20;99.90;;;;;;7278634;19;20196;-77
2023/08/16 00:36:26;;;;;;;11.40;3.27;;;22.30;99.90;;;;;;7278265;19;20210;-76
2023/08/16 00:38:52;;;;;;;7.93;2.80;;;22.40;99.90;;;;;;7283321;19;20192;-76
2023/08/16 00:41:19;;;;;;;8.33;3.10;;;22.40;99.90;;;;;;7298998;19;20572;-76
2023/08/16 00:43:44;;;;;;;10.27;2.90;;;22.40;99.90;;;;;;7276961;19;20190;-76
2023/08/16 00:46:13;;;;;;;11.43;2.93;;;22.40;99.90;;;;;;7277427;19;21386;-76
2023/08/16 00:48:43;;;;;;;10.07;2.87;;;22.40;99.90;;;;;;7277402;19;20193;-76
2023/08/16 00:51:09;;;;;;;10.27;3.00;;;22.30;99.90;;;;;;7277989;19;20252;-76
2023/08/16 00:53:37;;;;;;;8.47;2.90;;;22.20;99.90;;;;;;7278411;19;20193;-75
2023/08/16 00:56:04;;;;;;;6.57;2.60;;;22.20;99.90;;;;;;7278352;19;20543;-76
2023/08/16 00:58:31;;;;;;;7.20;2.80;;;22.20;99.90;;;;;;7276228;19;20189;-75
2023/08/16 01:00:57;;;;;;;9.27;2.90;;;22.30;99.90;;;;;;7276758;19;20256;-75
2023/08/16 01:03:23;;;;;;;11.37;3.23;;;22.30;99.90;;;;;;7276080;19;20672;-75
2023/08/16 01:05:49;;;;;;;11.07;3.50;;;22.20;99.90;;;;;;7298865;19;20189;-76
2023/08/16 01:08:15;;;;;;;11.13;3.40;;;22.20;99.90;;;;;;7277479;19;20194;-76
2023/08/16 01:10:43;;;;;;;9.60;3.57;;;22.20;99.90;;;;;;7276860;19;20222;-75
2023/08/16 01:13:40;;;;;;;9.27;3.50;;;22.10;99.90;;;;;;7276190;19;20202;-76
2023/08/16 01:16:08;;;;;;;12.23;3.67;;;22.10;99.90;;;;;;7174743;19;2006024;-75
2023/08/16 01:18:37;;;;;;;9.10;3.67;;;22.10;99.90;;;;;;7276691;19;20661;-76
2023/08/16 01:21:07;;;;;;;10.30;3.50;;;22.00;99.90;;;;;;7278289;19;20192;-75
2023/08/16 01:23:41;;;;;;;7.53;3.57;;;22.00;99.90;;;;;;7277143;19;20197;-76
2023/08/16 01:26:16;;;;;;;11.70;3.40;;;21.80;99.90;;;;;;7276950;19;20192;-76
2023/08/16 01:28:45;;;;;;;9.47;3.93;;;21.70;99.90;;;;;;7276150;19;20561;-74
2023/08/16 01:31:11;;;;;;;11.10;3.27;;;21.70;99.90;;;;;;7275678;19;20537;-75
2023/08/16 01:33:37;;;;;;;9.43;3.50;;;21.60;99.90;;;;;;7276414;19;20214;-75
2023/08/16 01:36:03;;;;;;;11.43;3.90;;;21.30;99.90;;;;;;7281636;19;20188;-75
2023/08/16 01:38:29;;;;;;;11.47;4.00;;;21.30;99.90;;;;;;7284452;19;20680;-75
2023/08/16 01:40:58;;;;;;;10.23;3.87;;;21.20;99.90;;;;;;7283823;19;20191;-75
2023/08/16 01:43:25;;;;;;;10.83;4.20;;;21.20;99.90;;;;;;7281592;19;20187;-75
2023/08/16 01:45:52;;;;;;;11.67;3.93;;;21.30;99.90;;;;;;7304380;19;20181;-75
2023/08/16 01:48:21;;;;;;;10.50;4.10;;;21.20;99.90;;;;;;7283495;19;20192;-75
2023/08/16 01:50:47;;;;;;;9.47;3.57;;;21.10;99.90;;;;;;7284394;19;20183;-75
2023/08/16 01:53:13;;;;;;;11.50;4.40;;;21.10;99.90;;;;;;7281913;19;20214;-76
2023/08/16 01:55:39;;;;;;;8.10;3.80;;;21.20;99.90;;;;;;7283360;19;20198;-75
2023/08/16 01:58:06;;;;;;;11.13;4.10;;;21.20;99.90;;;;;;7282719;19;20193;-75
2023/08/16 02:00:31;;;;;;;10.53;4.10;;;21.30;99.90;;;;;;7282313;19;20193;-74
2023/08/16 02:02:57;;;;;;;8.63;3.67;;;21.30;99.90;;;;;;7281790;19;21023;-75
2023/08/16 02:05:23;;;;;;;13.23;3.83;;;21.20;99.90;;;;;;7282779;19;20189;-74
2023/08/16 02:07:49;;;;;;;9.80;4.30;;;21.20;99.90;;;;;;7304724;19;20201;-75
2023/08/16 02:10:15;;;;;;;10.23;4.60;;;21.10;99.90;;;;;;7283287;19;20181;-75
2023/08/16 02:12:41;;;;;;;10.77;4.20;;;21.00;99.90;;;;;;7283393;19;20205;-75
2023/08/16 02:15:07;;;;;;;11.37;4.23;;;20.90;99.90;;;;;;7280584;19;20276;-75
2023/08/16 02:17:32;;;;;;;11.03;4.50;;;21.00;99.90;;;;;;7281473;19;20192;-75
2023/08/16 02:19:58;;;;;;;12.13;4.50;;;21.00;99.90;;;;;;7282220;19;20204;-75
2023/08/16 02:22:25;;;;;;;11.03;4.60;;;20.90;99.90;;;;;;7283238;19;20197;-75
2023/08/16 02:24:51;;;;;;;10.17;4.80;;;20.90;99.90;;;;;;7304411;19;20296;-75
2023/08/16 02:27:17;;;;;;;12.33;4.63;;;21.00;99.90;;;;;;7282945;19;20188;-75
2023/08/16 02:29:44;;;;;;;13.57;4.90;;;20.90;99.90;;;;;;7281860;19;20299;-76
2023/08/16 02:32:10;;;;;;;13.63;4.63;;;20.90;99.90;;;;;;7282744;19;20250;-75
2023/08/16 02:34:36;;;;;;;8.73;4.77;;;20.90;99.90;;;;;;7281034;19;20196;-75
2023/08/16 02:37:02;;;;;;;13.63;4.90;;;20.90;99.90;;;;;;7281939;19;20184;-75
2023/08/16 02:39:27;;;;;;;13.50;4.80;;;21.10;99.90;;;;;;7280285;19;20207;-76
2023/08/16 02:41:54;;;;;;;12.00;4.50;;;21.10;99.90;;;;;;7281449;19;20276;-75
2023/08/16 02:44:20;;;;;;;11.67;5.00;;;21.10;99.90;;;;;;7302541;19;20576;-75
2023/08/16 02:46:46;;;;;;;10.43;4.73;;;21.10;99.90;;;;;;7281184;19;20184;-75
2023/08/16 02:49:11;;;;;;;11.77;5.27;;;21.10;99.90;;;;;;7281742;19;20205;-75
2023/08/16 02:51:37;;;;;;;11.27;4.97;;;21.10;99.90;;;;;;7281797;19;20660;-76
2023/08/16 02:54:03;;;;;;;11.60;5.07;;;21.20;99.90;;;;;;7280502;19;20188;-75
2023/08/16 02:56:29;;;;;;;12.87;5.43;;;21.20;99.90;;;;;;7281562;19;20254;-75
2023/08/16 02:58:54;;;;;;;9.50;4.47;;;21.20;99.90;;;;;;7280296;19;20825;-76
2023/08/16 03:01:20;;;;;;;15.43;5.87;;;21.20;99.90;;;;;;7302681;19;20191;-77
2023/08/16 03:03:47;;;;;;;13.57;4.70;;;20.90;99.90;;;;;;7281060;19;20188;-74
2023/08/16 03:06:12;;;;;;;9.67;4.73;;;20.70;99.90;;;;;;7282700;19;20189;-74
2023/08/16 03:08:38;;;;;;;10.70;4.77;;;20.60;99.90;;;;;;7281234;19;20206;-75
2023/08/16 03:11:04;;;;;;;11.17;5.43;;;20.60;99.90;;;;;;7280000;19;20684;-75
2023/08/16 03:13:29;;;;;;;13.40;5.70;;;20.70;99.90;;;;;;7279373;19;20200;-75
2023/08/16 03:15:55;;;;;;;12.20;5.97;;;20.90;99.90;;;;;;7279714;19;20200;-75
2023/08/16 03:18:21;;;;;;;11.43;5.17;;;21.00;99.90;;;;;;7302885;19;20256;-75
2023/08/16 03:20:47;;;;;;;11.83;6.07;;;21.10;99.90;;;;;;7279392;19;20360;-75
2023/08/16 03:23:13;;;;;;;10.50;5.87;;;21.10;99.90;;;;;;7279540;19;20558;-74
2023/08/16 03:25:39;;;;;;;11.53;5.73;;;21.00;99.90;;;;;;7277943;19;20202;-75
2023/08/16 03:28:08;;;;;;;13.23;5.90;;;20.90;99.90;;;;;;7279898;19;20205;-75
2023/08/16 03:30:33;;;;;;;14.63;6.30;;;20.90;99.90;;;;;;7281435;19;20605;-75
2023/08/16 03:33:01;;;;;;;11.37;5.77;;;20.80;99.90;;;;;;7279203;19;20326;-75
2023/08/16 03:35:27;;;;;;;11.57;5.73;;;20.80;99.90;;;;;;7279987;19;20279;-75
2023/08/16 03:37:53;;;;;;;13.00;6.43;;;20.80;99.90;;;;;;7280088;19;20195;-75
2023/08/16 03:40:19;;;;;;;12.50;6.03;;;20.70;99.90;;;;;;7298577;19;20184;-75
2023/08/16 03:42:45;;;;;;;13.60;6.03;;;20.60;99.90;;;;;;7279718;19;20216;-74
2023/08/16 03:45:10;;;;;;;15.20;6.30;;;20.50;99.90;;;;;;7277825;19;20529;-75
2023/08/16 03:47:37;;;;;;;12.50;6.03;;;20.60;99.90;;;;;;7278309;19;20216;-76
2023/08/16 03:50:04;;;;;;;11.37;6.17;;;20.60;99.90;;;;;;7279785;19;20194;-76
2023/08/16 03:52:30;;;;;;;12.57;6.63;;;20.60;99.90;;;;;;7279609;19;20202;-75
2023/08/16 03:54:56;;;;;;;11.57;6.37;;;20.60;99.90;;;;;;7277676;19;20611;-74
2023/08/16 03:57:23;;;;;;;15.83;6.80;;;20.60;99.90;;;;;;7293741;19;20199;-74
2023/08/16 03:59:51;;;;;;;13.53;5.90;;;20.60;99.90;;;;;;7299086;19;20197;-75
2023/08/16 04:02:18;;;;;;;14.37;6.27;;;20.60;99.90;;;;;;7276934;19;20205;-76
2023/08/16 04:04:45;;;;;;;14.73;6.77;;;20.70;99.90;;;;;;7277889;19;20775;-75
2023/08/16 04:07:11;;;;;;;11.50;6.77;;;20.90;99.90;;;;;;7276916;19;20267;-75
2023/08/16 04:09:37;;;;;;;16.00;7.23;;;21.00;99.90;;;;;;7277603;19;20526;-75
2023/08/16 04:12:03;;;;;;;12.90;6.97;;;21.00;99.90;;;;;;7279846;19;20206;-76
2023/08/16 04:14:29;;;;;;;15.63;7.43;;;20.90;99.90;;;;;;7278295;19;21024;-75
2023/08/16 04:16:55;;;;;;;18.00;7.97;;;20.70;99.90;;;;;;7277724;19;20514;-75
2023/08/16 04:19:22;;;;;;;17.63;8.20;;;20.50;99.90;;;;;;7295110;19;20177;-75
2023/08/16 04:21:47;;;;;;;16.03;7.57;;;20.20;99.90;;;;;;7292290;19;20188;-75
2023/08/16 04:24:13;;;;;;;17.13;7.73;;;20.20;99.90;;;;;;7279672;19;20203;-75
2023/08/16 04:26:40;;;;;;;12.93;7.67;;;20.30;99.90;;;;;;7280066;19;20231;-74
2023/08/16 04:29:06;;;;;;;15.27;7.50;;;20.40;99.90;;;;;;7278795;19;20654;-75
2023/08/16 04:31:33;;;;;;;16.43;7.80;;;20.60;99.90;;;;;;7278523;19;20196;-75
2023/08/16 04:33:58;;;;;;;17.43;8.37;;;20.70;99.90;;;;;;7279339;19;20212;-75
2023/08/16 04:36:25;;;;;;;15.87;8.20;;;20.80;99.90;;;;;;7278186;19;20181;-75
2023/08/16 04:38:50;;;;;;;15.83;7.83;;;20.80;99.90;;;;;;7299596;19;20207;-75
2023/08/16 04:41:16;;;;;;;15.37;7.53;;;20.70;99.90;;;;;;7277515;19;20538;-75
2023/08/16 04:43:42;;;;;;;17.40;7.80;;;20.60;99.90;;;;;;7279775;19;20201;-75
2023/08/16 04:46:08;;;;;;;17.70;8.40;;;20.60;99.90;;;;;;7277182;19;20216;-76
2023/08/16 04:48:35;;;;;;;19.27;8.70;;;20.70;99.90;;;;;;7278941;19;20281;-76
2023/08/16 04:51:01;;;;;;;14.77;8.33;;;20.80;99.90;;;;;;7277376;19;20243;-75
2023/08/16 04:53:27;;;;;;;14.47;7.40;;;20.90;99.90;;;;;;7277372;19;20692;-76
2023/08/16 04:55:55;;;;;;;13.67;8.03;;;20.90;99.90;;;;;;7277747;19;20216;-75
2023/08/16 04:58:20;;;;;;;15.93;8.07;;;20.90;99.90;;;;;;7299832;19;20534;-75
2023/08/16 05:00:50;;;;;;;17.70;8.20;;;21.00;99.90;;;;;;7276759;19;20543;-75
2023/08/16 05:03:16;;;;;;;17.73;8.70;;;21.10;99.90;;;;;;7278824;19;20196;-75
2023/08/16 05:05:41;;;;;;;23.10;8.33;;;21.10;99.90;;;;;;7277063;19;20286;-75
2023/08/16 05:08:09;;;;;;;17.50;7.67;;;21.00;99.90;;;;;;7277308;19;20196;-75
2023/08/16 05:10:36;;;;;;;16.73;8.13;;;21.00;99.90;;;;;;7284057;19;20189;-76
2023/08/16 05:13:02;;;;;;;19.50;8.27;;;20.90;99.90;;;;;;7283815;19;20222;-76
2023/08/16 05:15:28;;;;;;;13.77;7.40;;;20.80;99.90;;;;;;7283656;19;20203;-76
2023/08/16 05:17:54;;;;;;;17.70;7.80;;;20.80;99.90;;;;;;7285186;19;20264;-75
2023/08/16 05:20:20;;;;;;;18.93;8.03;;;20.90;99.90;;;;;;7305452;19;20192;-76
2023/08/16 05:22:45;;;;;;;19.63;7.73;;;20.90;99.90;;;;;;7283931;19;20211;-75
2023/08/16 05:25:11;;;;;;;13.13;7.17;;;20.90;99.90;;;;;;7284918;19;21929;-75
2023/08/16 05:27:37;;;;;;;14.90;7.33;;;20.90;99.90;;;;;;7285337;19;20217;-75
2023/08/16 05:30:03;;;;;;;13.30;7.67;;;20.80;99.90;;;;;;7284373;19;20237;-75
2023/08/16 05:32:29;;;;;;;13.20;6.63;;;20.50;99.90;;;;;;7286937;19;20223;-75
2023/08/16 05:34:58;;;;;;;14.33;7.10;;;20.40;99.90;;;;;;7283204;19;22407;-75
2023/08/16 05:37:23;;;;;;;12.93;6.70;;;20.20;99.90;;;;;;7283193;19;20207;-75
2023/08/16 05:39:50;;;;;;;14.77;6.60;;;20.40;99.90;;;;;;7302855;19;20200;-75
2023/08/16 05:42:15;;;;;;;13.23;7.03;;;20.70;99.90;;;;;;7284037;19;20214;-76
2023/08/16 05:44:41;;;;;;;13.03;7.20;;;21.00;99.90;;;;;;7282274;19;20193;-76
2023/08/16 05:47:07;;;;;;;16.07;6.97;;;21.40;99.90;;;;;;7284797;19;20203;-76
2023/08/16 05:49:33;;;;;;;14.27;6.83;;;21.50;99.90;;;;;;7283437;19;20195;-76
2023/08/16 05:51:58;;;;;;;18.43;7.00;;;21.70;99.90;;;;;;7282294;19;20539;-76
2023/08/16 05:54:24;;;;;;;16.07;7.20;;;22.00;99.90;;;;;;7282460;19;20554;-76
2023/08/16 05:56:50;;;;;;;14.10;6.90;;;22.30;99.90;;;;;;7303981;19;20279;-76
2023/08/16 05:59:15;;;;;;;16.20;7.23;;;22.50;99.90;;;;;;7282752;19;20588;-76
2023/08/16 06:01:41;;;;;;;16.17;7.03;;;22.60;99.90;;;;;;7283744;19;20197;-76
2023/08/16 06:04:07;;;;;;;16.00;6.50;;;22.30;99.90;;;;;;7282467;19;20197;-76
2023/08/16 06:06:32;;;;;;;16.10;6.90;;;22.00;99.90;;;;;;7283915;19;20200;-76
2023/08/16 06:08:58;;;;;;;17.23;7.07;;;22.20;99.90;;;;;;7283191;19;20755;-76
2023/08/16 06:11:24;;;;;;;15.13;6.50;;;22.50;99.90;;;;;;7282175;19;20193;-76
2023/08/16 06:13:50;;;;;;;12.83;5.97;;;22.50;99.90;;;;;;7304149;19;20196;-76
2023/08/16 06:16:17;;;;;;;14.73;6.37;;;22.60;99.90;;;;;;7283175;19;20242;-76
2023/08/16 06:18:43;;;;;;;14.17;5.93;;;22.70;99.90;;;;;;7282668;19;20207;-75
2023/08/16 06:21:09;;;;;;;16.30;6.80;;;22.80;99.90;;;;;;7281240;19;20216;-75
2023/08/16 06:23:35;;;;;;;15.70;6.60;;;22.70;99.90;;;;;;7281922;19;20828;-76
2023/08/16 06:26:01;;;;;;;11.87;5.73;;;22.60;99.90;;;;;;7283566;19;20252;-76
2023/08/16 06:28:27;;;;;;;14.03;5.70;;;22.30;99.90;;;;;;7282463;19;20285;-76
2023/08/16 06:30:52;;;;;;;12.97;5.57;;;22.00;99.90;;;;;;7294364;19;20189;-76
2023/08/16 06:33:18;;;;;;;12.07;6.00;;;21.90;99.90;;;;;;7299806;19;20192;-76
2023/08/16 06:35:46;;;;;;;11.97;5.40;;;21.90;99.90;;;;;;7283371;19;20213;-76
2023/08/16 06:38:13;;;;;;;11.70;5.40;;;21.90;99.90;;;;;;7283291;19;20212;-76
2023/08/16 06:40:39;;;;;;;12.97;5.60;;;22.10;99.90;;;;;;7281475;19;20227;-74
2023/08/16 06:43:05;;;;;;;11.93;4.60;;;22.40;99.90;;;;;;7280327;19;20185;-75
2023/08/16 06:45:31;;;;;;;9.90;3.93;;;22.60;99.90;;;;;;7282681;19;20224;-76
2023/08/16 06:47:59;;;;;;;12.93;4.53;;;22.70;99.90;;;;;;7281519;19;20203;-76
2023/08/16 06:50:26;;;;;;;9.13;4.37;;;22.70;99.90;;;;;;7281714;19;20185;-75
2023/08/16 06:52:52;;;;;;;10.63;4.20;;;22.70;99.90;;;;;;7300492;19;20193;-75
2023/08/16 06:55:18;;;;;;;13.23;4.10;;;22.80;99.90;;;;;;7295537;19;21639;-75
2023/08/16 06:57:44;;;;;;;11.47;3.87;;;22.80;99.90;;;;;;7281419;19;20209;-76
2023/08/16 07:00:11;;;;;;;11.80;4.13;;;22.90;99.90;;;;;;7281945;19;20197;-75
2023/08/16 07:02:37;;;;;;;12.03;4.03;;;23.10;99.90;;;;;;7280454;19;20197;-76
2023/08/16 07:05:03;;;;;;;11.40;3.70;;;23.40;99.90;;;;;;7282255;19;20212;-75
2023/08/16 07:07:31;;;;;;;9.93;3.77;;;23.50;99.90;;;;;;7279945;19;20712;-75
2023/08/16 07:09:56;;;;;;;8.50;3.30;;;23.60;99.90;;;;;;7280473;19;20249;-75
2023/08/16 07:12:23;;;;;;;14.17;3.70;;;23.90;99.90;;;;;;7298951;19;20209;-75
2023/08/16 07:14:49;;;;;;;9.37;3.30;;;24.10;99.90;;;;;;7301331;19;20192;-76
2023/08/16 07:17:15;;;;;;;11.53;3.47;;;24.30;99.90;;;;;;7279445;19;20683;-76
2023/08/16 07:19:42;;;;;;;10.13;3.50;;;24.30;99.90;;;;;;7279514;19;20185;-76
2023/08/16 07:22:08;;;;;;;9.77;3.10;;;24.60;99.90;;;;;;7280421;19;20611;-76
2023/08/16 07:24:34;;;;;;;11.77;3.33;;;24.60;99.90;;;;;;7280338;19;20205;-76
2023/08/16 07:26:59;;;;;;;10.60;3.03;;;24.50;99.90;;;;;;7279843;19;20287;-76
2023/08/16 07:29:25;;;;;;;9.13;3.10;;;24.50;99.90;;;;;;7279842;19;20205;-75
2023/08/16 07:31:54;;;;;;;11.33;3.37;;;24.70;99.90;;;;;;7300825;19;20188;-76
2023/08/16 07:34:20;;;;;;;9.47;2.80;;;25.10;99.90;;;;;;7280137;19;20270;-76
2023/08/16 07:36:46;;;;;;;10.10;2.63;;;25.40;99.90;;;;;;7280519;19;20640;-75
2023/08/16 07:39:11;;;;;;;8.43;2.35;;;25.60;99.90;;;;;;7280306;19;20255;-76
2023/08/16 07:41:37;;;;;;;8.52;2.53;;;25.20;99.90;;;;;;7280255;19;20196;-75
2023/08/16 07:44:03;;;;;;;7.57;2.33;;;25.20;99.90;;;;;;7279886;19;20204;-75
2023/08/16 07:46:29;;;;;;;8.88;2.30;;;25.30;99.90;;;;;;7279153;19;20567;-75
2023/08/16 07:48:54;;;;;;;8.02;2.13;;;25.90;99.90;;;;;;7279947;19;20193;-75
2023/08/16 07:51:20;;;;;;;11.32;2.53;;;26.30;99.90;;;;;;7302234;19;20264;-75
2023/08/16 07:53:46;;;;;;;9.40;2.60;;;26.30;99.90;;;;;;7280176;19;20232;-75
2023/08/16 07:56:12;;;;;;;6.60;1.90;;;26.00;99.90;;;;;;7278250;19;20206;-76
2023/08/16 07:58:38;;;;;;;5.13;1.80;;;25.90;99.90;;;;;;7279219;19;20189;-75
2023/08/16 08:01:04;;;;;;;9.52;2.30;;;26.10;99.90;;;;;;7278744;19;20218;-75
2023/08/16 08:03:29;;;;;;;6.60;2.08;;;27.00;99.90;;;;;;7277431;19;20634;-75
2023/08/16 08:06:02;;;;;;;8.13;1.80;;;27.60;99.90;;;;;;7279454;19;20573;-75
2023/08/16 08:08:28;;;;;;;9.23;2.08;;;27.90;99.90;;;;;;7279301;19;20189;-76
2023/08/16 08:10:53;;;;;;;10.60;2.35;;;27.60;99.90;;;;;;7287267;19;20316;-76
2023/08/16 08:13:19;;;;;;;10.02;2.80;;;27.30;99.90;;;;;;7300848;19;20201;-76
2023/08/16 08:15:46;;;;;;;9.07;2.70;;;26.90;99.90;;;;;;7277673;19;20739;-76
2023/08/16 08:18:12;;;;;;;11.30;3.00;;;26.60;99.90;;;;;;7278834;19;20204;-76
2023/08/16 08:20:38;;;;;;;7.20;2.80;;;26.10;99.90;;;;;;7279325;19;20291;-76
2023/08/16 08:23:04;;;;;;;8.05;2.88;;;25.60;99.90;;;;;;7275552;19;20200;-76
2023/08/16 08:25:34;;;;;;;8.45;2.83;;;25.50;99.90;;;;;;7278879;19;20188;-77
2023/08/16 08:28:03;;;;;;;9.40;2.90;;;25.50;99.90;;;;;;7275286;19;20185;-76
2023/08/16 08:30:29;;;;;;;8.85;2.65;;;25.90;99.90;;;;;;7278822;19;20200;-76
2023/08/16 08:32:57;;;;;;;10.15;2.92;;;26.10;99.90;;;;;;7279542;19;20208;-76
2023/08/16 08:35:23;;;;;;;10.52;3.10;;;26.30;99.90;;;;;;7299008;19;20177;-76
2023/08/16 08:37:48;;;;;;;8.45;2.90;;;26.20;99.90;;;;;;7290090;19;20199;-76
2023/08/16 08:40:14;;;;;;;7.85;2.88;;;26.30;99.90;;;;;;7278930;19;20192;-76
2023/08/16 08:42:43;;;;;;;8.35;3.40;;;26.50;99.90;;;;;;7278981;19;20314;-76
2023/08/16 08:45:13;;;;;;;10.07;3.70;;;26.50;99.90;;;;;;7284015;19;20196;-76
2023/08/16 08:47:38;;;;;;;12.95;3.70;;;26.70;99.90;;;;;;7285995;19;20200;-76
2023/08/16 08:50:05;;;;;;;8.05;2.88;;;26.90;99.90;;;;;;7285453;19;20205;-76
2023/08/16 08:52:32;;;;;;;9.32;2.95;;;27.60;99.90;;;;;;7284786;19;20191;-76
2023/08/16 08:54:58;;;;;;;8.73;3.28;;;28.00;99.90;;;;;;7284815;19;20606;-76
2023/08/16 08:57:27;;;;;;;11.40;3.40;;;28.50;99.90;;;;;;7289454;19;20208;-76
2023/08/16 08:59:57;;;;;;;8.55;3.35;;;28.40;99.90;;;;;;7296148;19;20198;-76
2023/08/16 09:02:24;;;;;;;6.78;3.03;;;27.80;99.90;;;;;;7299958;19;20192;-76
2023/08/16 09:04:51;;;;;;;7.75;2.90;;;27.60;99.90;;;;;;7307980;19;20189;-76
2023/08/16 09:07:18;;;;;;;9.52;3.38;;;27.30;99.90;;;;;;7285290;19;20192;-76
2023/08/16 09:09:44;;;;;;;9.18;3.42;;;27.10;99.90;;;;;;7285833;19;20284;-76
2023/08/16 09:12:14;;;;;;;11.90;4.32;;;27.00;99.90;;;;;;7285545;19;20544;-76
2023/08/16 09:14:39;;;;;;;9.63;3.53;;;26.80;99.90;;;;;;7283315;19;20209;-76
2023/08/16 09:17:05;;;;;;;10.05;3.63;;;26.80;99.90;;;;;;7284825;19;20197;-76
2023/08/16 09:19:31;;;;;;;10.43;3.08;;;26.80;99.90;;;;;;7286080;19;20188;-76
2023/08/16 09:21:57;;;;;;;9.77;3.67;;;26.90;99.90;;;;;;7284663;19;20184;-76
2023/08/16 09:24:23;;;;;;;11.30;3.20;;;26.80;99.90;;;;;;7302879;19;20197;-76
2023/08/16 09:26:49;;;;;;;9.40;3.00;;;26.80;99.90;;;;;;7308219;19;20184;-76
2023/08/16 09:29:17;;;;;;;8.35;3.13;;;26.70;99.90;;;;;;7284997;19;20217;-76
2023/08/16 09:31:44;;;;;;;9.35;3.08;;;26.50;99.90;;;;;;7284097;19;20213;-76
2023/08/16 09:34:13;;;;;;;8.35;3.00;;;26.30;99.90;;;;;;7285391;19;20555;-75
2023/08/16 09:36:45;;;;;;;11.57;3.40;;;25.90;99.90;;;;;;7284838;19;20760;-76
2023/08/16 09:39:11;;;;;;;8.98;3.03;;;25.70;99.90;;;;;;7285134;19;20189;-76
2023/08/16 09:41:49;;;;;;;9.83;3.20;;;25.60;99.90;;;;;;7283517;19;20212;-76
2023/08/16 09:44:15;;;;;;;7.77;3.03;;;25.50;99.90;;;;;;7283909;19;20196;-76
2023/08/16 09:46:41;;;;;;;9.30;3.70;;;25.50;99.90;;;;;;7285173;19;20255;-76
2023/08/16 09:49:08;;;;;;;9.50;3.17;;;25.50;99.90;;;;;;7284285;19;20252;-76
2023/08/16 09:51:41;;;;;;;9.75;3.50;;;25.50;99.90;;;;;;7284918;19;20649;-76
2023/08/16 09:54:14;;;;;;;9.73;3.43;;;25.40;99.90;;;;;;7284430;19;20197;-76
2023/08/16 09:56:41;;;;;;;8.83;3.10;;;25.30;99.90;;;;;;7281023;19;20213;-76
2023/08/16 09:59:08;;;;;;;6.93;3.00;;;25.20;99.90;;;;;;7283403;19;20188;-76
2023/08/16 10:01:35;;;;;;;8.27;3.17;;;25.20;99.90;;;;;;7283309;19;20196;-76
2023/08/16 10:04:02;;;;;;;6.60;2.93;;;25.20;99.90;;;;;;7283975;19;20217;-76
2023/08/16 10:06:31;;;;;;;9.93;2.90;;;25.20;99.90;;;;;;7283907;19;20201;-76
2023/08/16 10:08:57;;;;;;;8.30;2.80;;;25.30;99.90;;;;;;7282740;19;20256;-75
2023/08/16 10:11:24;;;;;;;8.27;2.72;;;25.20;99.90;;;;;;7298277;19;20210;-77
2023/08/16 10:13:50;;;;;;;9.70;2.90;;;25.30;99.90;;;;;;7305345;19;20193;-75
2023/08/16 10:16:18;;;;;;;7.57;2.70;;;25.30;99.90;;;;;;7283545;19;20188;-75
2023/08/16 10:18:46;;;;;;;6.70;2.80;;;25.20;99.90;;;;;;7283262;19;20201;-75
2023/08/16 10:21:16;;;;;;;8.45;2.95;;;25.30;99.90;;;;;;7283218;19;20195;-76
2023/08/16 10:23:44;;;;;;;6.37;2.80;;;25.50;99.90;;;;;;7283141;19;20268;-75
2023/08/16 10:26:14;;;;;;;10.10;3.30;;;25.40;99.90;;;;;;7285026;19;20189;-75
2023/08/16 10:28:44;;;;;;;8.38;2.47;;;25.50;99.90;;;;;;7284406;19;20185;-76
2023/08/16 10:31:11;;;;;;;5.80;2.38;;;25.50;99.90;;;;;;7284362;19;20685;-75
2023/08/16 10:33:44;;;;;;;8.93;2.60;;;25.40;99.90;;;;;;7283816;19;20205;-76
2023/08/16 10:36:11;;;;;;;7.88;2.90;;;25.50;99.90;;;;;;7281868;19;20192;-75
2023/08/16 10:38:37;;;;;;;9.77;2.70;;;25.60;99.90;;;;;;7283581;19;20217;-76
2023/08/16 10:41:10;;;;;;;9.47;2.70;;;25.50;99.90;;;;;;7283147;19;20189;-75
2023/08/16 10:43:36;;;;;;;10.10;2.53;;;25.90;99.90;;;;;;7282215;19;20188;-75
2023/08/16 10:46:02;;;;;;;10.07;3.78;;;26.20;99.90;;;;;;7282997;19;20211;-75
2023/08/16 10:48:35;;;;;;;8.30;3.30;;;26.30;99.90;;;;;;7282117;19;20223;-75
2023/08/16 10:51:06;;;;;;;10.18;3.15;;;26.20;99.90;;;;;;7282133;19;20782;-76
2023/08/16 10:53:34;;;;;;;8.30;3.10;;;26.20;99.90;;;;;;7282863;19;20184;-76
2023/08/16 10:56:07;;;;;;;6.28;2.78;;;26.20;99.90;;;;;;7281209;19;20192;-75
2023/08/16 10:58:45;;;;;;;9.02;2.92;;;26.30;99.90;;;;;;7282330;19;20193;-75
2023/08/16 11:01:11;;;;;;;6.57;2.78;;;26.50;99.90;;;;;;7280809;19;20294;-78
2023/08/16 11:03:39;;;;;;;8.30;2.70;;;26.50;99.90;;;;;;7280961;19;20583;-76
2023/08/16 11:06:10;;;;;;;7.63;2.22;;;26.60;99.90;;;;;;7281619;19;20185;-77
2023/08/16 11:08:43;;;;;;;8.90;2.88;;;26.50;99.90;;;;;;7280885;19;20253;-77
2023/08/16 11:11:12;;;;;;;8.65;2.47;;;26.60;99.90;;;;;;7280953;19;20684;-76
2023/08/16 11:13:42;;;;;;;6.00;2.15;;;26.50;99.90;;;;;;7278769;19;20211;-76
2023/08/16 11:16:10;;;;;;;5.43;2.42;;;26.70;99.90;;;;;;7281709;19;20313;-75
2023/08/16 11:18:38;;;;;;;7.70;2.25;;;26.60;99.90;;;;;;7281716;19;20206;-75
2023/08/16 11:21:07;;;;;;;7.60;2.55;;;26.60;99.90;;;;;;7280710;19;20217;-75
2023/08/16 11:23:38;;;;;;;6.53;2.25;;;26.30;99.90;;;;;;7281583;19;20188;-75
2023/08/16 11:26:06;;;;;;;7.05;2.40;;;26.30;99.90;;;;;;7281980;19;20197;-76
2023/08/16 11:28:33;;;;;;;5.13;2.00;;;26.10;99.90;;;;;;7280326;19;20580;-75
2023/08/16 11:31:02;;;;;;;7.32;2.22;;;25.90;99.90;;;;;;7280861;19;20219;-76
2023/08/16 11:33:32;;;;;;;6.95;2.33;;;25.90;99.90;;;;;;7280086;19;20188;-76
2023/08/16 11:36:02;;;;;;;6.57;2.30;;;26.00;99.90;;;;;;7281039;19;20177;-76
2023/08/16 11:38:28;;;;;;;5.18;2.20;;;26.10;99.90;;;;;;7281873;19;20185;-75
2023/08/16 11:40:55;;;;;;;6.95;2.15;;;26.30;99.90;;;;;;7292138;19;20204;-76
2023/08/16 11:43:27;;;;;;;7.70;2.53;;;26.50;99.90;;;;;;7300545;19;20188;-76
2023/08/16 11:45:53;;;;;;;8.40;2.67;;;26.80;99.90;;;;;;7280262;19;20188;-75
2023/08/16 11:48:19;;;;;;;8.88;2.55;;;27.10;99.90;;;;;;7280643;19;20214;-76
2023/08/16 11:50:45;;;;;;;6.28;2.10;;;27.40;99.90;;;;;;7280678;19;20508;-77
2023/08/16 11:53:18;;;;;;;8.50;1.95;;;27.50;99.90;;;;;;7281058;19;20284;-76
2023/08/16 11:55:57;;;;;;;5.55;2.00;;;27.50;99.90;;;;;;7282148;19;20233;-74
2023/08/16 11:58:23;;;;;;;8.63;2.30;;;27.80;99.90;;;;;;7280710;19;20284;-75
2023/08/16 12:00:49;;;;;;;7.80;2.35;;;28.40;99.90;;;;;;7279927;19;20176;-75
2023/08/16 12:03:17;;;;;;;10.23;2.42;;;28.40;99.90;;;;;;7278997;19;20212;-75
2023/08/16 12:05:46;;;;;;;6.50;2.35;;;28.10;99.90;;;;;;7280541;19;20184;-75
2023/08/16 12:08:12;;;;;;;7.47;2.15;;;28.00;99.90;;;;;;7280637;19;20189;-75
2023/08/16 12:10:40;;;;;;;7.57;2.13;;;28.20;99.90;;;;;;7280469;19;20672;-76
2023/08/16 12:13:12;;;;;;;7.50;1.92;;;28.50;99.90;;;;;;7278113;19;20204;-75
2023/08/16 12:15:40;;;;;;;4.07;1.92;;;28.60;99.90;;;;;;7280491;19;20200;-75
2023/08/16 12:18:05;;;;;;;7.45;2.30;;;28.70;99.90;;;;;;7278138;19;20192;-76
2023/08/16 12:20:31;;;;;;;5.07;1.70;;;28.90;99.90;;;;;;7279266;19;20189;-76
2023/08/16 12:23:00;;;;;;;6.45;2.10;;;29.10;99.90;;;;;;7279541;19;20228;-76
2023/08/16 12:25:26;;;;;;;6.72;1.98;;;28.80;99.90;;;;;;7280497;19;20189;-75
2023/08/16 12:27:51;;;;;;;9.20;1.75;;;29.10;99.90;;;;;;7302010;19;20199;-75
2023/08/16 12:30:17;;;;;;;5.47;1.65;;;29.70;99.90;;;;;;7278623;19;20189;-75
2023/08/16 12:32:43;;;;;;;6.82;2.00;;;29.90;99.90;;;;;;7280037;19;21227;-76
2023/08/16 12:35:09;;;;;;;10.50;1.95;;;29.70;99.90;;;;;;7280307;19;20198;-76
2023/08/16 12:37:35;;;;;;;4.68;1.70;;;29.60;99.90;;;;;;7279309;19;20799;-76
2023/08/16 12:40:01;;;;;;;6.18;1.90;;;29.60;99.90;;;;;;7279092;19;20189;-77